sensor_id;sensor_type;location;lat;lon;timestamp;P1;durP1;ratioP1;P2;durP2;ratioP2
19278;SDS011;9773;47.062;15.446;2023-02-15T00:01:36;18.47;;;11.40;;
19278;SDS011;9773;47.062;15.446;2023-02-15T00:04:03;17.37;;;10.80;;
19278;SDS011;9773;47.062;15.446;2023-02-15T00:06:29;17.80;;;11.10;;
19278;SDS011;9773;47.062;15.446;2023-02-15T00:08:56;18.33;;;11.50;;
19278;SDS011;9773;47.062;15.446;2023-02-15T00:11:22;17.97;;;11.77;;
19278;SDS011;9773;47.062;15.446;2023-02-15T00:16:44;20.10;;;11.73;;
19278;SDS011;9773;47.062;15.446;2023-02-15T00:19:11;15.43;;;9.67;;
19278;SDS011;9773;47.062;15.446;2023-02-15T00:21:38;18.03;;;11.37;;
19278;SDS011;9773;47.062;15.446;2023-02-15T00:24:05;16.73;;;11.53;;
19278;SDS011;9773;47.062;15.446;2023-02-15T00:26:33;18.10;;;11.30;;
19278;SDS011;9773;47.062;15.446;2023-02-15T00:28:59;19.53;;;11.17;;
19278;SDS011;9773;47.062;15.446;2023-02-15T00:31:25;19.30;;;12.43;;
19278;SDS011;9773;47.062;15.446;2023-02-15T00:33:52;21.33;;;12.53;;
19278;SDS011;9773;47.062;15.446;2023-02-15T00:36:18;15.80;;;11.37;;
19278;SDS011;9773;47.062;15.446;2023-02-15T00:38:44;19.73;;;11.97;;
19278;SDS011;9773;47.062;15.446;2023-02-15T00:41:10;17.27;;;11.20;;
19278;SDS011;9773;47.062;15.446;2023-02-15T00:43:36;17.17;;;11.63;;
19278;SDS011;9773;47.062;15.446;2023-02-15T00:46:03;17.83;;;11.20;;
19278;SDS011;9773;47.062;15.446;2023-02-15T00:48:29;19.27;;;12.80;;
19278;SDS011;9773;47.062;15.446;2023-02-15T00:50:57;19.73;;;11.80;;
19278;SDS011;9773;47.062;15.446;2023-02-15T00:53:24;18.43;;;12.03;;
19278;SDS011;9773;47.062;15.446;2023-02-15T00:55:51;20.40;;;11.73;;
19278;SDS011;9773;47.062;15.446;2023-02-15T00:58:17;18.63;;;12.33;;
19278;SDS011;9773;47.062;15.446;2023-02-15T01:00:44;18.83;;;12.90;;
19278;SDS011;9773;47.062;15.446;2023-02-15T01:03:11;19.80;;;12.00;;
19278;SDS011;9773;47.062;15.446;2023-02-15T01:05:38;19.53;;;12.93;;
19278;SDS011;9773;47.062;15.446;2023-02-15T01:08:04;21.33;;;12.43;;
19278;SDS011;9773;47.062;15.446;2023-02-15T01:10:30;19.43;;;12.23;;
19278;SDS011;9773;47.062;15.446;2023-02-15T01:12:56;21.07;;;12.47;;
19278;SDS011;9773;47.062;15.446;2023-02-15T01:15:22;21.37;;;11.83;;
19278;SDS011;9773;47.062;15.446;2023-02-15T01:17:49;19.07;;;12.17;;
19278;SDS011;9773;47.062;15.446;2023-02-15T01:20:20;20.23;;;12.53;;
19278;SDS011;9773;47.062;15.446;2023-02-15T01:22:47;22.73;;;12.27;;
19278;SDS011;9773;47.062;15.446;2023-02-15T01:25:15;22.03;;;13.13;;
19278;SDS011;9773;47.062;15.446;2023-02-15T01:27:44;21.93;;;12.83;;
19278;SDS011;9773;47.062;15.446;2023-02-15T01:30:10;19.70;;;13.03;;
19278;SDS011;9773;47.062;15.446;2023-02-15T01:32:37;20.23;;;13.03;;
19278;SDS011;9773;47.062;15.446;2023-02-15T01:35:02;19.37;;;12.03;;
19278;SDS011;9773;47.062;15.446;2023-02-15T01:37:32;19.10;;;11.47;;
19278;SDS011;9773;47.062;15.446;2023-02-15T01:39:58;19.77;;;12.47;;
19278;SDS011;9773;47.062;15.446;2023-02-15T01:42:25;18.67;;;12.23;;
19278;SDS011;9773;47.062;15.446;2023-02-15T01:44:52;21.07;;;12.27;;
19278;SDS011;9773;47.062;15.446;2023-02-15T01:49:51;21.23;;;11.93;;
19278;SDS011;9773;47.062;15.446;2023-02-15T01:52:29;19.63;;;11.77;;
19278;SDS011;9773;47.062;15.446;2023-02-15T01:54:55;19.43;;;11.53;;
19278;SDS011;9773;47.062;15.446;2023-02-15T01:57:22;20.83;;;12.83;;
19278;SDS011;9773;47.062;15.446;2023-02-15T01:59:53;21.47;;;13.53;;
19278;SDS011;9773;47.062;15.446;2023-02-15T02:02:23;18.17;;;12.03;;
19278;SDS011;9773;47.062;15.446;2023-02-15T02:04:54;20.77;;;12.27;;
19278;SDS011;9773;47.062;15.446;2023-02-15T02:07:26;21.83;;;12.53;;
19278;SDS011;9773;47.062;15.446;2023-02-15T02:09:54;18.80;;;11.97;;
19278;SDS011;9773;47.062;15.446;2023-02-15T02:12:20;18.87;;;11.80;;
19278;SDS011;9773;47.062;15.446;2023-02-15T02:14:48;20.43;;;11.70;;
19278;SDS011;9773;47.062;15.446;2023-02-15T02:17:25;16.63;;;10.73;;
19278;SDS011;9773;47.062;15.446;2023-02-15T02:25:31;16.50;;;11.00;;
19278;SDS011;9773;47.062;15.446;2023-02-15T02:31:06;18.90;;;10.93;;
19278;SDS011;9773;47.062;15.446;2023-02-15T02:34:02;19.67;;;11.90;;
19278;SDS011;9773;47.062;15.446;2023-02-15T02:49:38;21.73;;;13.27;;
19278;SDS011;9773;47.062;15.446;2023-02-15T02:52:06;23.17;;;12.90;;
19278;SDS011;9773;47.062;15.446;2023-02-15T02:54:52;20.77;;;12.47;;
19278;SDS011;9773;47.062;15.446;2023-02-15T02:57:20;20.03;;;12.93;;
19278;SDS011;9773;47.062;15.446;2023-02-15T02:59:48;21.33;;;12.93;;
19278;SDS011;9773;47.062;15.446;2023-02-15T03:02:18;20.73;;;12.93;;
19278;SDS011;9773;47.062;15.446;2023-02-15T03:04:50;20.20;;;12.90;;
19278;SDS011;9773;47.062;15.446;2023-02-15T03:07:23;22.93;;;13.13;;
19278;SDS011;9773;47.062;15.446;2023-02-15T03:09:54;24.60;;;13.97;;
19278;SDS011;9773;47.062;15.446;2023-02-15T03:12:29;23.27;;;13.47;;
19278;SDS011;9773;47.062;15.446;2023-02-15T03:15:05;20.70;;;13.03;;
19278;SDS011;9773;47.062;15.446;2023-02-15T03:17:32;25.07;;;14.50;;
19278;SDS011;9773;47.062;15.446;2023-02-15T03:20:07;24.40;;;14.23;;
19278;SDS011;9773;47.062;15.446;2023-02-15T03:22:37;21.77;;;13.17;;
19278;SDS011;9773;47.062;15.446;2023-02-15T03:25:13;21.63;;;12.90;;
19278;SDS011;9773;47.062;15.446;2023-02-15T03:27:49;26.27;;;14.83;;
19278;SDS011;9773;47.062;15.446;2023-02-15T03:30:38;20.87;;;12.47;;
19278;SDS011;9773;47.062;15.446;2023-02-15T03:33:07;24.60;;;13.67;;
19278;SDS011;9773;47.062;15.446;2023-02-15T03:38:34;21.30;;;13.53;;
19278;SDS011;9773;47.062;15.446;2023-02-15T03:41:24;21.23;;;13.50;;
19278;SDS011;9773;47.062;15.446;2023-02-15T03:44:03;26.33;;;14.77;;
19278;SDS011;9773;47.062;15.446;2023-02-15T03:49:26;22.17;;;13.37;;
19278;SDS011;9773;47.062;15.446;2023-02-15T03:52:12;25.07;;;14.53;;
19278;SDS011;9773;47.062;15.446;2023-02-15T03:54:41;24.13;;;14.33;;
19278;SDS011;9773;47.062;15.446;2023-02-15T03:57:26;21.87;;;12.83;;
19278;SDS011;9773;47.062;15.446;2023-02-15T04:00:15;25.87;;;13.70;;
19278;SDS011;9773;47.062;15.446;2023-02-15T04:05:40;24.73;;;14.30;;
19278;SDS011;9773;47.062;15.446;2023-02-15T04:08:07;23.70;;;14.20;;
19278;SDS011;9773;47.062;15.446;2023-02-15T04:10:33;20.77;;;12.80;;
19278;SDS011;9773;47.062;15.446;2023-02-15T04:13:17;19.60;;;12.63;;
19278;SDS011;9773;47.062;15.446;2023-02-15T04:16:03;21.27;;;13.47;;
19278;SDS011;9773;47.062;15.446;2023-02-15T04:18:37;21.47;;;13.37;;
19278;SDS011;9773;47.062;15.446;2023-02-15T04:21:26;23.93;;;14.23;;
19278;SDS011;9773;47.062;15.446;2023-02-15T04:24:12;23.83;;;12.97;;
19278;SDS011;9773;47.062;15.446;2023-02-15T04:26:57;17.87;;;12.03;;
19278;SDS011;9773;47.062;15.446;2023-02-15T04:29:24;21.70;;;13.87;;
19278;SDS011;9773;47.062;15.446;2023-02-15T04:31:52;22.07;;;13.03;;
19278;SDS011;9773;47.062;15.446;2023-02-15T04:34:19;24.77;;;13.60;;
19278;SDS011;9773;47.062;15.446;2023-02-15T04:36:45;24.73;;;13.90;;
19278;SDS011;9773;47.062;15.446;2023-02-15T04:39:12;21.83;;;13.00;;
19278;SDS011;9773;47.062;15.446;2023-02-15T04:41:38;25.87;;;13.93;;
19278;SDS011;9773;47.062;15.446;2023-02-15T04:44:04;18.03;;;11.57;;
19278;SDS011;9773;47.062;15.446;2023-02-15T04:46:30;15.83;;;10.53;;
19278;SDS011;9773;47.062;15.446;2023-02-15T04:48:57;17.77;;;11.87;;
19278;SDS011;9773;47.062;15.446;2023-02-15T04:51:22;18.93;;;11.73;;
19278;SDS011;9773;47.062;15.446;2023-02-15T04:53:49;18.30;;;11.40;;
19278;SDS011;9773;47.062;15.446;2023-02-15T04:56:17;17.43;;;12.30;;
19278;SDS011;9773;47.062;15.446;2023-02-15T04:58:43;18.10;;;11.33;;
19278;SDS011;9773;47.062;15.446;2023-02-15T05:01:10;21.53;;;11.87;;
19278;SDS011;9773;47.062;15.446;2023-02-15T05:03:36;17.93;;;11.47;;
19278;SDS011;9773;47.062;15.446;2023-02-15T05:06:02;19.07;;;11.93;;
19278;SDS011;9773;47.062;15.446;2023-02-15T05:08:29;20.03;;;11.90;;
19278;SDS011;9773;47.062;15.446;2023-02-15T05:10:55;19.83;;;12.07;;
19278;SDS011;9773;47.062;15.446;2023-02-15T05:13:21;19.87;;;11.90;;
19278;SDS011;9773;47.062;15.446;2023-02-15T05:15:48;18.17;;;11.37;;
19278;SDS011;9773;47.062;15.446;2023-02-15T05:18:15;19.63;;;12.43;;
19278;SDS011;9773;47.062;15.446;2023-02-15T05:20:42;22.47;;;11.57;;
19278;SDS011;9773;47.062;15.446;2023-02-15T05:23:08;20.47;;;12.50;;
19278;SDS011;9773;47.062;15.446;2023-02-15T05:25:34;25.50;;;12.30;;
19278;SDS011;9773;47.062;15.446;2023-02-15T05:28:19;20.77;;;12.00;;
19278;SDS011;9773;47.062;15.446;2023-02-15T05:31:00;23.73;;;13.07;;
19278;SDS011;9773;47.062;15.446;2023-02-15T05:33:35;19.93;;;11.53;;
19278;SDS011;9773;47.062;15.446;2023-02-15T05:36:02;19.53;;;11.97;;
19278;SDS011;9773;47.062;15.446;2023-02-15T05:38:28;20.33;;;11.50;;
19278;SDS011;9773;47.062;15.446;2023-02-15T05:40:55;18.17;;;10.97;;
19278;SDS011;9773;47.062;15.446;2023-02-15T05:43:22;21.53;;;12.03;;
19278;SDS011;9773;47.062;15.446;2023-02-15T05:45:48;16.90;;;10.77;;
19278;SDS011;9773;47.062;15.446;2023-02-15T05:48:16;20.17;;;11.70;;
19278;SDS011;9773;47.062;15.446;2023-02-15T05:50:43;17.87;;;11.20;;
19278;SDS011;9773;47.062;15.446;2023-02-15T05:53:09;19.63;;;10.90;;
19278;SDS011;9773;47.062;15.446;2023-02-15T05:55:37;19.97;;;11.87;;
19278;SDS011;9773;47.062;15.446;2023-02-15T05:58:04;17.97;;;11.77;;
19278;SDS011;9773;47.062;15.446;2023-02-15T06:00:33;20.53;;;12.03;;
19278;SDS011;9773;47.062;15.446;2023-02-15T06:02:59;23.33;;;11.00;;
19278;SDS011;9773;47.062;15.446;2023-02-15T06:05:25;20.37;;;11.80;;
19278;SDS011;9773;47.062;15.446;2023-02-15T06:07:51;18.03;;;11.10;;
19278;SDS011;9773;47.062;15.446;2023-02-15T06:10:17;20.30;;;11.13;;
19278;SDS011;9773;47.062;15.446;2023-02-15T06:12:43;20.10;;;10.97;;
19278;SDS011;9773;47.062;15.446;2023-02-15T06:15:10;16.80;;;10.70;;
19278;SDS011;9773;47.062;15.446;2023-02-15T06:17:36;20.80;;;12.13;;
19278;SDS011;9773;47.062;15.446;2023-02-15T06:20:02;19.43;;;11.50;;
19278;SDS011;9773;47.062;15.446;2023-02-15T06:22:28;19.93;;;10.73;;
19278;SDS011;9773;47.062;15.446;2023-02-15T06:24:54;17.33;;;11.17;;
19278;SDS011;9773;47.062;15.446;2023-02-15T06:27:19;17.90;;;11.20;;
19278;SDS011;9773;47.062;15.446;2023-02-15T06:29:45;20.10;;;11.67;;
19278;SDS011;9773;47.062;15.446;2023-02-15T06:32:11;18.53;;;11.53;;
19278;SDS011;9773;47.062;15.446;2023-02-15T06:34:37;17.67;;;11.47;;
19278;SDS011;9773;47.062;15.446;2023-02-15T06:37:03;18.57;;;12.33;;
19278;SDS011;9773;47.062;15.446;2023-02-15T06:39:33;19.90;;;12.37;;
19278;SDS011;9773;47.062;15.446;2023-02-15T06:42:01;22.93;;;11.73;;
19278;SDS011;9773;47.062;15.446;2023-02-15T06:44:27;22.13;;;12.77;;
19278;SDS011;9773;47.062;15.446;2023-02-15T06:46:53;24.10;;;13.43;;
19278;SDS011;9773;47.062;15.446;2023-02-15T06:49:19;25.33;;;13.83;;
19278;SDS011;9773;47.062;15.446;2023-02-15T06:51:44;22.17;;;12.33;;
19278;SDS011;9773;47.062;15.446;2023-02-15T06:54:10;22.43;;;13.43;;
19278;SDS011;9773;47.062;15.446;2023-02-15T06:56:36;19.93;;;12.43;;
19278;SDS011;9773;47.062;15.446;2023-02-15T06:59:02;26.20;;;14.00;;
19278;SDS011;9773;47.062;15.446;2023-02-15T07:01:28;22.03;;;12.90;;
19278;SDS011;9773;47.062;15.446;2023-02-15T07:03:54;22.63;;;13.70;;
19278;SDS011;9773;47.062;15.446;2023-02-15T07:06:19;23.90;;;13.20;;
19278;SDS011;9773;47.062;15.446;2023-02-15T07:08:45;22.37;;;13.17;;
19278;SDS011;9773;47.062;15.446;2023-02-15T07:11:11;18.50;;;12.47;;
19278;SDS011;9773;47.062;15.446;2023-02-15T07:13:55;21.90;;;12.33;;
19278;SDS011;9773;47.062;15.446;2023-02-15T07:16:21;24.40;;;14.10;;
19278;SDS011;9773;47.062;15.446;2023-02-15T07:18:47;24.20;;;13.90;;
19278;SDS011;9773;47.062;15.446;2023-02-15T07:21:13;22.37;;;12.60;;
19278;SDS011;9773;47.062;15.446;2023-02-15T07:23:39;23.77;;;13.10;;
19278;SDS011;9773;47.062;15.446;2023-02-15T07:26:05;24.43;;;13.30;;
19278;SDS011;9773;47.062;15.446;2023-02-15T07:28:34;25.30;;;14.17;;
19278;SDS011;9773;47.062;15.446;2023-02-15T07:31:01;22.67;;;13.67;;
19278;SDS011;9773;47.062;15.446;2023-02-15T07:33:29;21.50;;;13.27;;
19278;SDS011;9773;47.062;15.446;2023-02-15T07:35:57;22.87;;;13.60;;
19278;SDS011;9773;47.062;15.446;2023-02-15T07:38:25;21.30;;;12.73;;
19278;SDS011;9773;47.062;15.446;2023-02-15T07:40:51;23.90;;;14.07;;
19278;SDS011;9773;47.062;15.446;2023-02-15T07:43:23;22.47;;;13.97;;
19278;SDS011;9773;47.062;15.446;2023-02-15T07:45:49;27.77;;;14.47;;
19278;SDS011;9773;47.062;15.446;2023-02-15T07:48:15;22.67;;;14.07;;
19278;SDS011;9773;47.062;15.446;2023-02-15T07:50:41;24.80;;;14.03;;
19278;SDS011;9773;47.062;15.446;2023-02-15T07:53:06;24.63;;;13.20;;
19278;SDS011;9773;47.062;15.446;2023-02-15T07:55:32;27.43;;;14.07;;
19278;SDS011;9773;47.062;15.446;2023-02-15T07:57:58;23.90;;;13.00;;
19278;SDS011;9773;47.062;15.446;2023-02-15T08:00:24;25.13;;;13.97;;
19278;SDS011;9773;47.062;15.446;2023-02-15T08:02:50;23.90;;;13.73;;
19278;SDS011;9773;47.062;15.446;2023-02-15T08:05:38;24.83;;;14.43;;
19278;SDS011;9773;47.062;15.446;2023-02-15T08:08:09;28.07;;;14.60;;
19278;SDS011;9773;47.062;15.446;2023-02-15T08:10:58;25.93;;;14.83;;
19278;SDS011;9773;47.062;15.446;2023-02-15T08:13:47;22.70;;;13.80;;
19278;SDS011;9773;47.062;15.446;2023-02-15T08:16:24;25.60;;;14.83;;
19278;SDS011;9773;47.062;15.446;2023-02-15T08:18:52;26.27;;;14.63;;
19278;SDS011;9773;47.062;15.446;2023-02-15T08:21:19;23.13;;;13.93;;
19278;SDS011;9773;47.062;15.446;2023-02-15T08:23:45;26.43;;;14.53;;
19278;SDS011;9773;47.062;15.446;2023-02-15T08:26:11;22.60;;;13.87;;
19278;SDS011;9773;47.062;15.446;2023-02-15T08:28:38;26.03;;;15.27;;
19278;SDS011;9773;47.062;15.446;2023-02-15T08:31:13;24.93;;;14.43;;
19278;SDS011;9773;47.062;15.446;2023-02-15T08:33:40;23.67;;;13.73;;
19278;SDS011;9773;47.062;15.446;2023-02-15T08:36:11;26.63;;;14.83;;
19278;SDS011;9773;47.062;15.446;2023-02-15T08:38:39;24.33;;;15.47;;
19278;SDS011;9773;47.062;15.446;2023-02-15T08:43:45;23.90;;;13.83;;
19278;SDS011;9773;47.062;15.446;2023-02-15T08:46:13;22.33;;;13.60;;
19278;SDS011;9773;47.062;15.446;2023-02-15T08:48:40;22.43;;;14.13;;
19278;SDS011;9773;47.062;15.446;2023-02-15T08:51:15;23.47;;;14.10;;
19278;SDS011;9773;47.062;15.446;2023-02-15T08:53:44;24.80;;;14.70;;
19278;SDS011;9773;47.062;15.446;2023-02-15T08:56:14;21.83;;;13.67;;
19278;SDS011;9773;47.062;15.446;2023-02-15T08:58:40;23.00;;;14.30;;
19278;SDS011;9773;47.062;15.446;2023-02-15T09:01:13;25.50;;;14.50;;
19278;SDS011;9773;47.062;15.446;2023-02-15T09:03:43;24.07;;;15.20;;
19278;SDS011;9773;47.062;15.446;2023-02-15T09:06:10;23.37;;;14.90;;
19278;SDS011;9773;47.062;15.446;2023-02-15T09:08:36;27.43;;;15.37;;
19278;SDS011;9773;47.062;15.446;2023-02-15T09:11:07;24.07;;;14.53;;
19278;SDS011;9773;47.062;15.446;2023-02-15T09:13:47;24.63;;;14.03;;
19278;SDS011;9773;47.062;15.446;2023-02-15T09:16:13;24.77;;;15.50;;
19278;SDS011;9773;47.062;15.446;2023-02-15T09:18:42;25.67;;;14.80;;
19278;SDS011;9773;47.062;15.446;2023-02-15T09:21:09;24.90;;;14.60;;
19278;SDS011;9773;47.062;15.446;2023-02-15T09:23:39;25.30;;;15.67;;
19278;SDS011;9773;47.062;15.446;2023-02-15T09:26:06;24.63;;;15.53;;
19278;SDS011;9773;47.062;15.446;2023-02-15T09:28:37;25.13;;;14.83;;
19278;SDS011;9773;47.062;15.446;2023-02-15T09:33:36;23.67;;;15.07;;
19278;SDS011;9773;47.062;15.446;2023-02-15T09:36:03;26.73;;;14.87;;
19278;SDS011;9773;47.062;15.446;2023-02-15T09:38:30;25.93;;;14.90;;
19278;SDS011;9773;47.062;15.446;2023-02-15T09:41:21;25.70;;;15.07;;
19278;SDS011;9773;47.062;15.446;2023-02-15T09:49:48;24.57;;;14.80;;
19278;SDS011;9773;47.062;15.446;2023-02-15T09:52:22;25.93;;;14.63;;
19278;SDS011;9773;47.062;15.446;2023-02-15T10:03:16;25.90;;;15.17;;
19278;SDS011;9773;47.062;15.446;2023-02-15T10:09:01;28.97;;;16.83;;
19278;SDS011;9773;47.062;15.446;2023-02-15T10:28:23;25.77;;;15.83;;
19278;SDS011;9773;47.062;15.446;2023-02-15T10:31:15;28.97;;;16.53;;
19278;SDS011;9773;47.062;15.446;2023-02-15T10:33:43;27.17;;;15.50;;
19278;SDS011;9773;47.062;15.446;2023-02-15T10:36:17;26.23;;;15.80;;
19278;SDS011;9773;47.062;15.446;2023-02-15T10:41:46;25.03;;;16.03;;
19278;SDS011;9773;47.062;15.446;2023-02-15T10:44:35;25.27;;;15.83;;
19278;SDS011;9773;47.062;15.446;2023-02-15T10:53:00;31.47;;;17.10;;
19278;SDS011;9773;47.062;15.446;2023-02-15T11:06:30;29.67;;;16.17;;
19278;SDS011;9773;47.062;15.446;2023-02-15T11:09:02;34.20;;;17.07;;
19278;SDS011;9773;47.062;15.446;2023-02-15T11:11:37;27.13;;;15.13;;
19278;SDS011;9773;47.062;15.446;2023-02-15T11:17:10;26.00;;;15.93;;
19278;SDS011;9773;47.062;15.446;2023-02-15T11:22:16;26.90;;;16.07;;
19278;SDS011;9773;47.062;15.446;2023-02-15T11:24:43;27.77;;;16.07;;
19278;SDS011;9773;47.062;15.446;2023-02-15T11:32:37;27.90;;;15.97;;
19278;SDS011;9773;47.062;15.446;2023-02-15T11:37:39;26.93;;;15.53;;
19278;SDS011;9773;47.062;15.446;2023-02-15T11:40:33;32.90;;;15.77;;
19278;SDS011;9773;47.062;15.446;2023-02-15T11:43:13;29.63;;;15.93;;
19278;SDS011;9773;47.062;15.446;2023-02-15T11:45:45;27.70;;;15.60;;
19278;SDS011;9773;47.062;15.446;2023-02-15T11:48:12;28.50;;;15.30;;
19278;SDS011;9773;47.062;15.446;2023-02-15T11:50:43;24.63;;;15.40;;
19278;SDS011;9773;47.062;15.446;2023-02-15T11:53:13;34.70;;;17.40;;
19278;SDS011;9773;47.062;15.446;2023-02-15T11:55:43;25.17;;;15.50;;
19278;SDS011;9773;47.062;15.446;2023-02-15T12:00:54;25.27;;;15.93;;
19278;SDS011;9773;47.062;15.446;2023-02-15T12:03:28;31.23;;;16.83;;
19278;SDS011;9773;47.062;15.446;2023-02-15T12:06:11;29.00;;;15.70;;
19278;SDS011;9773;47.062;15.446;2023-02-15T12:09:06;30.37;;;15.73;;
19278;SDS011;9773;47.062;15.446;2023-02-15T12:14:49;25.60;;;15.97;;
19278;SDS011;9773;47.062;15.446;2023-02-15T12:17:17;33.80;;;17.30;;
19278;SDS011;9773;47.062;15.446;2023-02-15T12:19:45;31.47;;;15.93;;
19278;SDS011;9773;47.062;15.446;2023-02-15T12:22:23;31.13;;;16.17;;
19278;SDS011;9773;47.062;15.446;2023-02-15T12:24:51;26.23;;;15.63;;
19278;SDS011;9773;47.062;15.446;2023-02-15T12:27:33;32.67;;;17.37;;
19278;SDS011;9773;47.062;15.446;2023-02-15T12:30:01;28.87;;;15.93;;
19278;SDS011;9773;47.062;15.446;2023-02-15T12:32:36;30.77;;;15.17;;
19278;SDS011;9773;47.062;15.446;2023-02-15T12:35:29;30.03;;;15.33;;
19278;SDS011;9773;47.062;15.446;2023-02-15T12:40:35;32.10;;;15.90;;
19278;SDS011;9773;47.062;15.446;2023-02-15T12:43:03;29.50;;;16.53;;
19278;SDS011;9773;47.062;15.446;2023-02-15T12:45:36;27.03;;;15.97;;
19278;SDS011;9773;47.062;15.446;2023-02-15T12:50:38;27.10;;;16.17;;
19278;SDS011;9773;47.062;15.446;2023-02-15T12:53:19;26.33;;;15.53;;
19278;SDS011;9773;47.062;15.446;2023-02-15T12:55:58;28.73;;;15.37;;
19278;SDS011;9773;47.062;15.446;2023-02-15T12:58:29;29.47;;;16.10;;
19278;SDS011;9773;47.062;15.446;2023-02-15T13:01:04;30.17;;;16.70;;
19278;SDS011;9773;47.062;15.446;2023-02-15T13:03:38;30.23;;;16.37;;
19278;SDS011;9773;47.062;15.446;2023-02-15T13:06:22;30.03;;;15.23;;
19278;SDS011;9773;47.062;15.446;2023-02-15T13:08:52;29.47;;;16.33;;
19278;SDS011;9773;47.062;15.446;2023-02-15T13:11:44;26.17;;;15.20;;
19278;SDS011;9773;47.062;15.446;2023-02-15T13:14:22;27.03;;;15.77;;
19278;SDS011;9773;47.062;15.446;2023-02-15T13:16:56;27.83;;;15.60;;
19278;SDS011;9773;47.062;15.446;2023-02-15T13:19:33;28.17;;;15.73;;
19278;SDS011;9773;47.062;15.446;2023-02-15T13:22:15;25.33;;;15.00;;
19278;SDS011;9773;47.062;15.446;2023-02-15T13:24:46;30.57;;;16.33;;
19278;SDS011;9773;47.062;15.446;2023-02-15T13:27:16;30.80;;;15.83;;
19278;SDS011;9773;47.062;15.446;2023-02-15T13:29:46;27.87;;;16.20;;
19278;SDS011;9773;47.062;15.446;2023-02-15T13:34:54;30.53;;;16.43;;
19278;SDS011;9773;47.062;15.446;2023-02-15T13:37:34;24.37;;;15.03;;
19278;SDS011;9773;47.062;15.446;2023-02-15T13:48:37;28.23;;;16.03;;
19278;SDS011;9773;47.062;15.446;2023-02-15T13:51:24;32.00;;;16.47;;
19278;SDS011;9773;47.062;15.446;2023-02-15T13:54:22;29.17;;;16.50;;
19278;SDS011;9773;47.062;15.446;2023-02-15T13:57:23;28.97;;;15.97;;
19278;SDS011;9773;47.062;15.446;2023-02-15T14:05:36;28.27;;;15.33;;
19278;SDS011;9773;47.062;15.446;2023-02-15T14:08:37;27.30;;;15.30;;
19278;SDS011;9773;47.062;15.446;2023-02-15T14:17:23;27.80;;;16.03;;
19278;SDS011;9773;47.062;15.446;2023-02-15T14:25:56;30.63;;;15.83;;
19278;SDS011;9773;47.062;15.446;2023-02-15T14:28:33;28.53;;;15.80;;
19278;SDS011;9773;47.062;15.446;2023-02-15T14:31:09;30.47;;;16.00;;
19278;SDS011;9773;47.062;15.446;2023-02-15T14:33:38;29.93;;;16.20;;
19278;SDS011;9773;47.062;15.446;2023-02-15T14:36:07;32.70;;;16.63;;
19278;SDS011;9773;47.062;15.446;2023-02-15T14:41:37;29.30;;;15.40;;
19278;SDS011;9773;47.062;15.446;2023-02-15T14:44:15;32.23;;;16.23;;
19278;SDS011;9773;47.062;15.446;2023-02-15T14:47:15;29.43;;;15.90;;
19278;SDS011;9773;47.062;15.446;2023-02-15T14:49:55;32.33;;;16.30;;
19278;SDS011;9773;47.062;15.446;2023-02-15T14:52:21;32.00;;;16.67;;
19278;SDS011;9773;47.062;15.446;2023-02-15T15:02:17;32.13;;;16.57;;
19278;SDS011;9773;47.062;15.446;2023-02-15T15:07:24;32.40;;;16.03;;
19278;SDS011;9773;47.062;15.446;2023-02-15T15:12:46;26.90;;;15.17;;
19278;SDS011;9773;47.062;15.446;2023-02-15T15:18:01;29.83;;;16.00;;
19278;SDS011;9773;47.062;15.446;2023-02-15T15:20:42;27.30;;;15.67;;
19278;SDS011;9773;47.062;15.446;2023-02-15T15:25:46;28.73;;;16.07;;
19278;SDS011;9773;47.062;15.446;2023-02-15T15:31:00;31.90;;;15.77;;
19278;SDS011;9773;47.062;15.446;2023-02-15T15:33:54;26.73;;;15.30;;
19278;SDS011;9773;47.062;15.446;2023-02-15T15:36:47;34.27;;;17.57;;
19278;SDS011;9773;47.062;15.446;2023-02-15T15:50:45;30.50;;;15.57;;
19278;SDS011;9773;47.062;15.446;2023-02-15T15:53:17;34.87;;;15.73;;
19278;SDS011;9773;47.062;15.446;2023-02-15T15:55:49;31.00;;;15.40;;
19278;SDS011;9773;47.062;15.446;2023-02-15T15:58:17;31.67;;;16.30;;
19278;SDS011;9773;47.062;15.446;2023-02-15T16:03:20;30.10;;;15.87;;
19278;SDS011;9773;47.062;15.446;2023-02-15T16:05:48;26.87;;;14.80;;
19278;SDS011;9773;47.062;15.446;2023-02-15T16:10:54;34.80;;;15.77;;
19278;SDS011;9773;47.062;15.446;2023-02-15T16:13:20;33.37;;;15.97;;
19278;SDS011;9773;47.062;15.446;2023-02-15T16:15:47;33.27;;;16.37;;
19278;SDS011;9773;47.062;15.446;2023-02-15T16:18:18;35.73;;;17.70;;
19278;SDS011;9773;47.062;15.446;2023-02-15T16:28:47;30.57;;;15.10;;
19278;SDS011;9773;47.062;15.446;2023-02-15T16:31:15;29.30;;;15.90;;
19278;SDS011;9773;47.062;15.446;2023-02-15T16:33:42;33.10;;;16.23;;
19278;SDS011;9773;47.062;15.446;2023-02-15T16:36:19;32.47;;;16.23;;
19278;SDS011;9773;47.062;15.446;2023-02-15T16:41:17;30.43;;;15.20;;
19278;SDS011;9773;47.062;15.446;2023-02-15T16:43:48;31.10;;;14.73;;
19278;SDS011;9773;47.062;15.446;2023-02-15T16:46:16;26.33;;;14.77;;
19278;SDS011;9773;47.062;15.446;2023-02-15T16:49:06;30.67;;;16.67;;
19278;SDS011;9773;47.062;15.446;2023-02-15T16:51:41;29.43;;;16.40;;
19278;SDS011;9773;47.062;15.446;2023-02-15T16:54:19;29.37;;;15.60;;
19278;SDS011;9773;47.062;15.446;2023-02-15T16:56:49;27.87;;;15.53;;
19278;SDS011;9773;47.062;15.446;2023-02-15T16:59:18;33.47;;;16.00;;
19278;SDS011;9773;47.062;15.446;2023-02-15T17:02:18;30.40;;;15.13;;
19278;SDS011;9773;47.062;15.446;2023-02-15T17:05:32;30.80;;;15.57;;
19278;SDS011;9773;47.062;15.446;2023-02-15T17:10:38;26.80;;;15.40;;
19278;SDS011;9773;47.062;15.446;2023-02-15T17:13:16;30.20;;;15.70;;
19278;SDS011;9773;47.062;15.446;2023-02-15T17:15:44;37.00;;;16.40;;
19278;SDS011;9773;47.062;15.446;2023-02-15T17:18:29;29.37;;;16.00;;
19278;SDS011;9773;47.062;15.446;2023-02-15T17:20:57;30.43;;;15.90;;
19278;SDS011;9773;47.062;15.446;2023-02-15T17:23:31;31.73;;;15.03;;
19278;SDS011;9773;47.062;15.446;2023-02-15T17:28:49;34.47;;;17.33;;
19278;SDS011;9773;47.062;15.446;2023-02-15T17:31:18;34.83;;;17.63;;
19278;SDS011;9773;47.062;15.446;2023-02-15T17:33:47;32.60;;;16.90;;
19278;SDS011;9773;47.062;15.446;2023-02-15T17:41:30;29.60;;;15.93;;
19278;SDS011;9773;47.062;15.446;2023-02-15T17:43:59;40.97;;;18.10;;
19278;SDS011;9773;47.062;15.446;2023-02-15T17:46:27;34.20;;;17.73;;
19278;SDS011;9773;47.062;15.446;2023-02-15T17:48:59;37.77;;;17.13;;
19278;SDS011;9773;47.062;15.446;2023-02-15T17:51:26;39.33;;;17.00;;
19278;SDS011;9773;47.062;15.446;2023-02-15T17:53:53;37.17;;;18.23;;
19278;SDS011;9773;47.062;15.446;2023-02-15T17:56:38;30.27;;;16.53;;
19278;SDS011;9773;47.062;15.446;2023-02-15T17:59:04;33.83;;;17.63;;
19278;SDS011;9773;47.062;15.446;2023-02-15T18:01:36;34.60;;;17.60;;
19278;SDS011;9773;47.062;15.446;2023-02-15T18:04:29;36.30;;;18.60;;
19278;SDS011;9773;47.062;15.446;2023-02-15T18:07:16;37.37;;;17.70;;
19278;SDS011;9773;47.062;15.446;2023-02-15T18:10:03;33.97;;;17.97;;
19278;SDS011;9773;47.062;15.446;2023-02-15T18:13:00;29.83;;;17.27;;
19278;SDS011;9773;47.062;15.446;2023-02-15T18:15:28;35.90;;;17.63;;
19278;SDS011;9773;47.062;15.446;2023-02-15T18:17:55;39.60;;;19.07;;